createdAt,value
2023-05-11T00:02:16.271Z,0.77
2023-05-11T00:04:45.892Z,0.70
2023-05-11T00:07:13.919Z,0.60
2023-05-11T00:09:42.533Z,0.70
2023-05-11T00:12:11.034Z,0.80
2023-05-11T00:14:39.152Z,0.73
2023-05-11T00:17:07.423Z,0.67
2023-05-11T00:19:35.596Z,0.70
2023-05-11T00:22:07.934Z,0.70
2023-05-11T00:24:36.230Z,0.50
2023-05-11T00:27:04.343Z,0.70
2023-05-11T00:29:32.572Z,0.70
2023-05-11T00:32:00.940Z,0.50
2023-05-11T00:34:38.211Z,0.67
2023-05-11T00:37:08.234Z,0.70
2023-05-11T00:39:40.523Z,0.77
2023-05-11T00:42:09.059Z,0.60
2023-05-11T00:44:37.292Z,0.60
2023-05-11T00:47:05.715Z,0.70
2023-05-11T00:49:33.978Z,0.80
2023-05-11T00:52:03.291Z,0.70
2023-05-11T00:54:33.084Z,0.60
2023-05-11T00:57:01.415Z,0.80
2023-05-11T00:59:29.562Z,1.10
2023-05-11T01:01:58.626Z,0.60
2023-05-11T01:04:27.384Z,1.00
2023-05-11T01:07:02.454Z,0.60
2023-05-11T01:09:45.997Z,0.90
2023-05-11T01:12:18.227Z,0.90
2023-05-11T01:14:53.216Z,0.90
2023-05-11T01:17:27.500Z,0.80
2023-05-11T01:19:59.151Z,0.83
2023-05-11T01:22:39.970Z,0.63
2023-05-11T01:25:20.108Z,1.07
2023-05-11T01:28:02.066Z,1.47
2023-05-11T01:30:34.382Z,1.00
2023-05-11T01:33:08.107Z,0.90
2023-05-11T01:35:39.092Z,0.77
2023-05-11T01:38:11.936Z,0.80
2023-05-11T01:40:40.992Z,0.90
2023-05-11T01:43:11.361Z,1.10
2023-05-11T01:45:43.100Z,0.90
2023-05-11T01:48:15.267Z,1.00
2023-05-11T01:50:44.230Z,0.90
2023-05-11T01:53:13.294Z,0.90
2023-05-11T01:55:42.424Z,1.00
2023-05-11T01:58:11.738Z,0.80
2023-05-11T02:00:40.308Z,0.70
2023-05-11T02:03:11.262Z,0.70
2023-05-11T02:05:40.559Z,0.80
2023-05-11T02:08:10.274Z,0.80
2023-05-11T02:10:39.760Z,0.60
2023-05-11T02:13:09.846Z,0.70
2023-05-11T02:15:42.576Z,0.70
2023-05-11T02:18:14.223Z,0.90
2023-05-11T02:20:45.201Z,0.80
2023-05-11T02:23:14.119Z,0.93
2023-05-11T02:25:43.179Z,0.90
2023-05-11T02:28:11.661Z,0.90
2023-05-11T02:30:42.537Z,0.90
2023-05-11T02:33:16.159Z,0.90
2023-05-11T02:35:44.699Z,1.00
2023-05-11T02:38:14.555Z,0.87
2023-05-11T02:40:47.515Z,0.70
2023-05-11T02:43:22.060Z,0.83
2023-05-11T02:46:00.782Z,0.80
2023-05-11T02:48:33.008Z,0.90
2023-05-11T02:51:02.366Z,0.80
2023-05-11T02:53:36.367Z,0.80
2023-05-11T02:56:05.065Z,0.60
2023-05-11T02:58:35.956Z,0.70
2023-05-11T03:01:26.392Z,1.10
2023-05-11T03:03:58.915Z,0.70
2023-05-11T03:06:29.032Z,1.00
2023-05-11T03:08:57.263Z,0.90
2023-05-11T03:11:27.657Z,0.77
2023-05-11T03:13:55.856Z,0.80
2023-05-11T03:16:24.234Z,0.70
2023-05-11T03:18:52.798Z,0.70
2023-05-11T03:21:24.422Z,0.90
2023-05-11T03:23:53.006Z,0.90
2023-05-11T03:26:22.581Z,0.90
2023-05-11T03:28:52.280Z,0.87
2023-05-11T03:31:20.459Z,0.90
2023-05-11T03:33:48.972Z,0.70
2023-05-11T03:36:17.125Z,0.80
2023-05-11T03:38:48.087Z,0.70
2023-05-11T03:41:18.903Z,0.90
2023-05-11T03:43:53.033Z,0.90
2023-05-11T03:46:24.253Z,1.53
2023-05-11T03:48:52.931Z,0.77
2023-05-11T03:51:24.925Z,1.00
2023-05-11T03:53:54.582Z,0.83
2023-05-11T03:56:22.740Z,0.90
2023-05-11T03:58:53.545Z,1.10
2023-05-11T04:01:22.836Z,1.00
2023-05-11T04:03:51.825Z,0.80
2023-05-11T04:06:20.914Z,0.90
2023-05-11T04:08:57.297Z,0.90
2023-05-11T04:11:27.019Z,0.80
2023-05-11T04:13:56.203Z,1.07
2023-05-11T04:16:24.359Z,1.03
2023-05-11T04:18:52.617Z,1.17
2023-05-11T04:21:22.091Z,1.03
2023-05-11T04:23:50.175Z,1.00
2023-05-11T04:26:20.995Z,0.90
2023-05-11T04:28:49.217Z,1.00
2023-05-11T04:31:17.498Z,1.10
2023-05-11T04:33:45.697Z,1.10
2023-05-11T04:36:14.007Z,1.17
2023-05-11T04:38:42.593Z,1.10
2023-05-11T04:41:11.773Z,1.00
2023-05-11T04:43:42.787Z,1.00
2023-05-11T04:46:11.545Z,1.30
2023-05-11T04:48:40.449Z,1.30
2023-05-11T04:51:08.836Z,1.80
2023-05-11T04:53:42.489Z,1.63
2023-05-11T04:56:11.983Z,1.60
2023-05-11T04:58:40.194Z,1.90
2023-05-11T05:01:09.838Z,1.77
2023-05-11T05:03:38.145Z,1.87
2023-05-11T05:06:06.553Z,1.83
2023-05-11T05:08:34.841Z,1.50
2023-05-11T05:11:02.881Z,2.00
2023-05-11T05:13:31.073Z,2.10
2023-05-11T05:15:59.585Z,2.30
2023-05-11T05:18:29.247Z,2.00
2023-05-11T05:20:57.563Z,2.50
2023-05-11T05:23:26.762Z,2.00
2023-05-11T05:25:55.156Z,2.17
2023-05-11T05:28:23.493Z,2.23
2023-05-11T05:30:51.782Z,2.33
2023-05-11T05:33:20.851Z,2.40
2023-05-11T05:35:50.392Z,3.00
2023-05-11T05:38:18.790Z,3.27
2023-05-11T05:40:48.353Z,3.60
2023-05-11T05:43:17.044Z,3.70
2023-05-11T05:45:45.312Z,3.40
2023-05-11T05:48:13.679Z,3.43
2023-05-11T05:50:41.878Z,3.57
2023-05-11T05:53:11.424Z,3.87
2023-05-11T05:55:40.333Z,3.83
2023-05-11T05:58:08.494Z,4.10
2023-05-11T06:00:37.123Z,4.30
2023-05-11T06:03:09.438Z,4.43
2023-05-11T06:05:38.466Z,4.50
2023-05-11T06:08:11.193Z,5.33
2023-05-11T06:10:42.168Z,5.83
2023-05-11T06:13:11.880Z,5.23
2023-05-11T06:15:43.750Z,5.23
2023-05-11T06:18:26.193Z,5.67
2023-05-11T06:20:54.573Z,5.20
2023-05-11T06:23:23.232Z,5.90
2023-05-11T06:25:52.776Z,6.77
2023-05-11T06:28:24.351Z,6.20
2023-05-11T06:30:58.211Z,6.23
2023-05-11T06:33:28.605Z,6.07
2023-05-11T06:35:57.812Z,6.47
2023-05-11T06:38:29.248Z,5.93
2023-05-11T06:40:58.934Z,5.60
2023-05-11T06:43:27.081Z,5.57
2023-05-11T06:45:55.254Z,6.53
2023-05-11T06:48:25.900Z,6.57
2023-05-11T06:50:54.177Z,6.53
2023-05-11T06:53:22.555Z,7.00
2023-05-11T06:55:50.676Z,7.40
2023-05-11T06:58:21.397Z,7.13
2023-05-11T07:00:49.550Z,7.20
2023-05-11T07:03:17.967Z,7.30
2023-05-11T07:06:03.450Z,8.40
2023-05-11T07:08:35.309Z,7.90
2023-05-11T07:11:14.231Z,8.00
2023-05-11T07:14:40.983Z,7.60
2023-05-11T07:17:21.661Z,9.03
2023-05-11T07:20:25.020Z,8.30
2023-05-11T07:26:14.313Z,8.40
2023-05-11T07:29:00.518Z,9.07
2023-05-11T07:31:30.280Z,9.07
2023-05-11T07:33:58.626Z,9.17
2023-05-11T07:36:26.787Z,9.17
2023-05-11T07:38:54.964Z,9.30
2023-05-11T07:41:26.738Z,9.33
2023-05-11T07:43:54.826Z,8.50
2023-05-11T07:46:23.093Z,10.27
2023-05-11T07:49:03.413Z,10.60
2023-05-11T07:51:35.871Z,9.90
2023-05-11T07:54:04.307Z,10.77
2023-05-11T07:56:32.282Z,11.27
2023-05-11T07:59:00.334Z,11.70
2023-05-11T08:01:28.461Z,10.27
2023-05-11T08:04:00.485Z,10.50
2023-05-11T08:06:28.732Z,10.50
2023-05-11T08:08:57.085Z,10.83
2023-05-11T08:11:25.259Z,10.40
2023-05-11T08:13:53.566Z,10.50
2023-05-11T08:16:22.243Z,11.07
2023-05-11T08:18:50.845Z,11.77
2023-05-11T08:21:20.891Z,12.90
2023-05-11T08:23:49.030Z,11.57
2023-05-11T08:26:17.242Z,11.07
2023-05-11T08:28:45.705Z,12.37
2023-05-11T08:31:14.401Z,12.10
2023-05-11T08:33:42.717Z,11.57
2023-05-11T08:36:13.264Z,11.73
2023-05-11T08:38:43.186Z,11.33
2023-05-11T08:41:13.107Z,11.07
2023-05-11T08:43:42.199Z,11.67
2023-05-11T08:46:12.262Z,11.33
2023-05-11T08:48:40.668Z,10.77
2023-05-11T08:51:08.857Z,12.00
2023-05-11T08:53:37.156Z,11.63
2023-05-11T08:56:08.999Z,12.93
2023-05-11T08:58:38.506Z,12.73
2023-05-11T09:01:07.837Z,12.60
2023-05-11T09:03:37.712Z,12.27
2023-05-11T09:06:07.452Z,11.47
2023-05-11T09:08:36.586Z,11.27
2023-05-11T09:11:07.133Z,10.87
2023-05-11T09:13:35.631Z,10.83
2023-05-11T09:16:03.878Z,12.03
2023-05-11T09:18:32.073Z,10.67
2023-05-11T09:21:01.562Z,10.20
2023-05-11T09:23:29.619Z,12.43
2023-05-11T09:25:57.921Z,10.80
2023-05-11T09:28:35.366Z,10.53
2023-05-11T09:31:04.263Z,10.00
2023-05-11T09:33:32.995Z,10.47
2023-05-11T09:36:03.008Z,11.00
2023-05-11T09:38:31.148Z,10.67
2023-05-11T09:41:01.212Z,9.77
2023-05-11T09:43:32.164Z,10.00
2023-05-11T09:46:07.292Z,9.60
2023-05-11T09:48:36.564Z,9.60
2023-05-11T09:51:09.602Z,9.43
2023-05-11T09:53:40.916Z,9.70
2023-05-11T09:56:09.255Z,10.03
2023-05-11T09:58:50.834Z,9.10
2023-05-11T10:01:29.729Z,10.17
2023-05-11T10:04:06.088Z,10.00
2023-05-11T10:06:48.161Z,9.80
2023-05-11T10:09:17.548Z,9.17
2023-05-11T10:11:47.056Z,9.20
2023-05-11T10:14:17.300Z,9.10
2023-05-11T10:16:46.618Z,8.40
2023-05-11T10:19:15.137Z,8.40
2023-05-11T10:21:43.372Z,8.23
2023-05-11T10:24:13.813Z,8.90
2023-05-11T10:26:42.743Z,8.80
2023-05-11T10:29:11.738Z,8.93
2023-05-11T10:31:41.482Z,9.10
2023-05-11T10:34:12.113Z,8.47
2023-05-11T10:36:40.330Z,7.77
2023-05-11T10:39:08.570Z,8.43
2023-05-11T10:41:46.176Z,7.93
2023-05-11T10:44:48.903Z,8.50
2023-05-11T10:47:53.465Z,8.73
2023-05-11T10:50:34.752Z,8.10
2023-05-11T10:53:18.358Z,7.30
2023-05-11T10:56:02.636Z,9.20
2023-05-11T10:58:55.118Z,8.13
2023-05-11T11:01:39.547Z,7.80
2023-05-11T11:04:09.951Z,7.43
2023-05-11T11:06:40.806Z,7.97
2023-05-11T11:09:12.818Z,8.03
2023-05-11T11:11:42.656Z,8.03
2023-05-11T11:14:11.562Z,8.67
2023-05-11T11:16:40.430Z,8.30
2023-05-11T11:19:36.741Z,8.50
2023-05-11T11:22:06.849Z,8.60
2023-05-11T11:24:45.775Z,8.70
2023-05-11T11:27:14.084Z,9.70
2023-05-11T11:29:42.559Z,8.13
2023-05-11T11:32:31.083Z,8.57
2023-05-11T11:34:59.368Z,8.67
2023-05-11T11:37:28.916Z,8.27
2023-05-11T11:40:13.014Z,7.87
2023-05-11T11:42:44.440Z,9.40
2023-05-11T11:45:32.882Z,8.97
2023-05-11T11:48:22.454Z,8.30
2023-05-11T11:51:02.613Z,7.67
2023-05-11T11:54:19.624Z,7.40
2023-05-11T11:56:50.675Z,7.27
2023-05-11T11:59:21.609Z,7.57
2023-05-11T12:01:54.800Z,8.03
2023-05-11T12:04:52.527Z,8.20
2023-05-11T12:07:22.769Z,8.30
2023-05-11T12:09:56.882Z,6.43
2023-05-11T12:12:25.100Z,5.50
2023-05-11T12:14:53.493Z,5.60
2023-05-11T12:17:27.410Z,6.77
2023-05-11T12:19:55.954Z,7.73
2023-05-11T12:22:24.849Z,7.90
2023-05-11T12:24:59.538Z,6.90
2023-05-11T12:27:28.681Z,8.40
2023-05-11T12:29:57.365Z,7.60
2023-05-11T12:32:31.377Z,8.07
2023-05-11T12:35:01.758Z,7.77
2023-05-11T12:37:31.585Z,6.60
2023-05-11T12:40:01.787Z,7.27
2023-05-11T12:42:30.052Z,8.00
2023-05-11T12:44:58.342Z,7.30
2023-05-11T12:47:26.570Z,7.40
2023-05-11T12:49:54.929Z,7.90
2023-05-11T12:52:25.241Z,7.63
2023-05-11T12:54:55.062Z,6.30
2023-05-11T12:57:26.334Z,6.30
2023-05-11T13:00:12.175Z,7.93
2023-05-11T13:02:51.100Z,7.40
2023-05-11T13:05:20.879Z,6.87
2023-05-11T13:07:49.645Z,7.03
2023-05-11T13:10:17.890Z,6.53
2023-05-11T13:12:51.917Z,7.67
2023-05-11T13:15:21.875Z,6.67
2023-05-11T13:17:57.128Z,6.90
2023-05-11T13:20:27.733Z,7.67
2023-05-11T13:23:05.158Z,7.73
2023-05-11T13:25:34.321Z,8.03
2023-05-11T13:28:04.203Z,8.00
2023-05-11T13:30:35.139Z,10.20
2023-05-11T13:33:03.949Z,7.90
2023-05-11T13:35:32.288Z,8.03
2023-05-11T13:38:00.808Z,8.77
2023-05-11T13:40:29.221Z,8.53
2023-05-11T13:42:57.849Z,9.50
2023-05-11T13:45:28.380Z,7.60
2023-05-11T13:47:57.040Z,9.83
2023-05-11T13:50:26.144Z,9.30
2023-05-11T13:52:54.531Z,8.90
2023-05-11T13:55:22.664Z,9.70
2023-05-11T13:57:51.156Z,9.27
2023-05-11T14:00:20.074Z,9.53
2023-05-11T14:02:51.507Z,9.47
2023-05-11T14:05:20.206Z,9.47
2023-05-11T14:07:49.341Z,9.37
2023-05-11T14:10:17.926Z,8.73
2023-05-11T14:12:46.335Z,10.23
2023-05-11T14:15:14.878Z,9.80
2023-05-11T14:17:43.542Z,11.47
2023-05-11T14:20:14.586Z,11.00
2023-05-11T14:22:42.986Z,11.47
2023-05-11T14:25:11.858Z,11.23
2023-05-11T14:27:39.977Z,11.50
2023-05-11T14:30:09.342Z,10.97
2023-05-11T14:32:37.607Z,11.37
2023-05-11T14:35:06.974Z,11.43
2023-05-11T14:37:37.362Z,12.27
2023-05-11T14:40:06.991Z,11.57
2023-05-11T14:42:35.503Z,12.97
2023-05-11T14:45:04.897Z,11.30
2023-05-11T14:47:33.750Z,11.07
2023-05-11T14:50:02.158Z,10.57
2023-05-11T14:52:30.713Z,12.67
2023-05-11T14:55:00.557Z,10.43
2023-05-11T14:57:29.031Z,11.27
2023-05-11T14:59:59.505Z,9.77
2023-05-11T15:02:29.918Z,10.40
2023-05-11T15:05:01.678Z,11.43
2023-05-11T15:07:30.368Z,11.20
2023-05-11T15:10:01.998Z,11.70
2023-05-11T15:12:30.932Z,10.70
2023-05-11T15:15:03.695Z,10.93
2023-05-11T15:17:32.510Z,10.57
2023-05-11T15:20:01.459Z,9.70
2023-05-11T15:22:30.396Z,11.93
2023-05-11T15:25:05.023Z,27.67
2023-05-11T15:27:36.694Z,9.97
2023-05-11T15:30:06.125Z,9.67
2023-05-11T15:32:36.405Z,9.70
2023-05-11T15:35:06.085Z,9.63
2023-05-11T15:37:34.731Z,9.53
2023-05-11T15:40:06.464Z,9.90
2023-05-11T15:42:35.090Z,11.80
2023-05-11T15:45:04.310Z,10.33
2023-05-11T15:47:32.726Z,11.33
2023-05-11T15:50:01.069Z,10.80
2023-05-11T15:52:30.009Z,11.13
2023-05-11T15:54:58.177Z,11.17
2023-05-11T15:57:27.706Z,12.87
2023-05-11T15:59:55.848Z,11.63
2023-05-11T16:02:24.223Z,12.27
2023-05-11T16:04:52.724Z,12.07
2023-05-11T16:07:21.064Z,12.30
2023-05-11T16:09:49.249Z,13.70
2023-05-11T16:12:17.550Z,12.37
2023-05-11T16:14:47.018Z,13.60
2023-05-11T16:17:15.339Z,14.03
2023-05-11T16:19:43.652Z,13.47
2023-05-11T16:22:12.272Z,14.23
2023-05-11T16:24:42.884Z,14.50
2023-05-11T16:27:11.135Z,14.83
2023-05-11T16:29:39.456Z,14.93
2023-05-11T16:32:09.043Z,16.33
2023-05-11T16:34:37.221Z,15.60
2023-05-11T16:37:05.942Z,15.13
2023-05-11T16:39:34.292Z,16.37
2023-05-11T16:42:03.260Z,16.90
2023-05-11T16:44:31.684Z,15.17
2023-05-11T16:47:00.512Z,16.03
2023-05-11T16:49:30.219Z,16.00
2023-05-11T16:51:58.272Z,16.00
2023-05-11T16:54:27.355Z,17.10
2023-05-11T16:56:55.474Z,17.57
2023-05-11T16:59:23.601Z,16.97
2023-05-11T17:01:51.829Z,17.73
2023-05-11T17:04:20.192Z,17.57
2023-05-11T17:06:49.740Z,17.73
2023-05-11T17:09:17.837Z,18.80
2023-05-11T17:11:46.244Z,18.80
2023-05-11T17:14:14.546Z,19.13
2023-05-11T17:16:43.018Z,17.40
2023-05-11T17:19:11.825Z,18.70
2023-05-11T17:21:40.128Z,18.93
2023-05-11T17:24:09.793Z,19.90
2023-05-11T17:26:47.984Z,20.93
2023-05-11T17:29:17.218Z,21.47
2023-05-11T17:31:46.726Z,22.63
2023-05-11T17:34:15.175Z,22.60
2023-05-11T17:36:43.514Z,22.53
2023-05-11T17:39:13.190Z,20.97
2023-05-11T17:41:41.180Z,18.13
2023-05-11T17:44:09.320Z,18.17
2023-05-11T17:46:37.480Z,18.00
2023-05-11T17:49:13.420Z,18.47
2023-05-11T17:51:41.956Z,18.03
2023-05-11T17:54:24.091Z,18.00
2023-05-11T17:56:52.618Z,18.50
2023-05-11T17:59:21.172Z,18.67
2023-05-11T18:01:49.883Z,19.10
2023-05-11T18:04:18.438Z,20.53
2023-05-11T18:06:46.568Z,20.30
2023-05-11T18:09:15.985Z,19.23
2023-05-11T18:11:44.255Z,21.07
2023-05-11T18:14:12.403Z,21.07
2023-05-11T18:16:40.523Z,20.77
2023-05-11T18:19:08.859Z,22.33
2023-05-11T18:21:37.718Z,20.27
2023-05-11T18:24:06.385Z,20.37
2023-05-11T18:26:35.959Z,22.33
2023-05-11T18:29:04.088Z,21.33
2023-05-11T18:31:32.404Z,19.87
2023-05-11T18:34:00.625Z,19.97
2023-05-11T18:36:29.486Z,19.93
2023-05-11T18:38:57.643Z,20.20
2023-05-11T18:41:25.801Z,20.53
2023-05-11T18:43:55.258Z,18.53
2023-05-11T18:46:23.480Z,18.17
2023-05-11T18:48:52.812Z,19.17
2023-05-11T18:51:22.793Z,17.67
2023-05-11T18:53:51.489Z,17.23
2023-05-11T18:56:19.922Z,16.27
2023-05-11T18:58:50.340Z,16.57
2023-05-11T19:01:20.098Z,16.07
2023-05-11T19:03:48.337Z,17.23
2023-05-11T19:06:17.689Z,18.80
2023-05-11T19:08:45.923Z,19.33
2023-05-11T19:11:15.627Z,20.73
2023-05-11T19:13:44.152Z,20.50
2023-05-11T19:16:12.396Z,21.20
2023-05-11T19:18:41.961Z,21.10
2023-05-11T19:21:10.600Z,20.27
2023-05-11T19:23:38.672Z,21.63
2023-05-11T19:26:06.729Z,21.53
2023-05-11T19:28:34.865Z,22.17
2023-05-11T19:31:03.551Z,22.80
2023-05-11T19:33:31.803Z,19.63
2023-05-11T19:36:01.347Z,18.97
2023-05-11T19:38:29.612Z,19.10
2023-05-11T19:40:57.912Z,20.03
2023-05-11T19:43:26.459Z,18.73
2023-05-11T19:45:54.591Z,17.43
2023-05-11T19:48:22.650Z,16.73
2023-05-11T19:50:50.694Z,17.13
2023-05-11T19:53:20.275Z,17.07
2023-05-11T19:55:48.455Z,18.43
2023-05-11T19:58:17.440Z,18.60
2023-05-11T20:00:45.510Z,18.33
2023-05-11T20:03:13.903Z,18.13
2023-05-11T20:05:42.116Z,17.10
2023-05-11T20:08:10.479Z,16.67
2023-05-11T20:10:40.702Z,17.50
2023-05-11T20:13:08.903Z,17.17
2023-05-11T20:15:37.238Z,17.80
2023-05-11T20:18:05.367Z,18.00
2023-05-11T20:20:34.195Z,18.53
2023-05-11T20:23:02.505Z,19.80
2023-05-11T20:25:30.926Z,20.47
2023-05-11T20:28:01.175Z,21.47
2023-05-11T20:30:29.276Z,19.67
2023-05-11T20:35:28.541Z,23.90
2023-05-11T20:37:57.872Z,23.30
2023-05-11T20:40:26.601Z,22.90
2023-05-11T20:42:54.943Z,24.37
2023-05-11T20:45:24.696Z,22.53
2023-05-11T20:47:52.877Z,25.30
2023-05-11T20:50:21.873Z,25.30
2023-05-11T20:52:50.379Z,25.80
2023-05-11T20:55:18.942Z,24.97
2023-05-11T20:57:47.370Z,26.43
2023-05-11T21:00:18.370Z,25.63
2023-05-11T21:02:48.030Z,28.23
2023-05-11T21:05:16.216Z,28.80
2023-05-11T21:07:44.367Z,30.27
2023-05-11T21:10:13.392Z,28.03
2023-05-11T21:12:41.555Z,29.03
2023-05-11T21:15:10.862Z,30.23
2023-05-11T21:17:38.979Z,31.67
2023-05-11T21:20:09.997Z,33.70
2023-05-11T21:23:04.846Z,34.90
2023-05-11T21:25:33.101Z,36.87
2023-05-11T21:28:04.187Z,38.30
2023-05-11T21:30:32.784Z,39.03
2023-05-11T21:33:06.115Z,37.97
2023-05-11T21:35:38.484Z,37.67
2023-05-11T21:38:06.988Z,39.73
2023-05-11T21:40:37.290Z,38.73
2023-05-11T21:43:30.867Z,40.57
2023-05-11T21:46:08.269Z,39.73
2023-05-11T21:48:39.415Z,41.33
2023-05-11T21:51:12.914Z,39.67
2023-05-11T21:53:46.600Z,40.43
2023-05-11T21:56:33.408Z,41.07
2023-05-11T21:59:01.818Z,42.53
2023-05-11T22:01:30.500Z,42.10
2023-05-11T22:04:01.103Z,40.77
2023-05-11T22:06:33.025Z,41.77
2023-05-11T22:09:06.086Z,42.70
2023-05-11T22:11:40.215Z,43.97
2023-05-11T22:14:10.958Z,41.97
2023-05-11T22:16:43.464Z,42.47
2023-05-11T22:19:11.749Z,41.40
2023-05-11T22:21:41.318Z,40.00
2023-05-11T22:24:10.141Z,39.23
2023-05-11T22:26:38.369Z,39.53
2023-05-11T22:29:06.623Z,39.40
2023-05-11T22:31:35.112Z,37.60
2023-05-11T22:34:03.364Z,37.80
2023-05-11T22:36:31.575Z,35.63
2023-05-11T22:39:02.122Z,36.27
2023-05-11T22:41:30.244Z,34.07
2023-05-11T22:43:58.215Z,32.87
2023-05-11T22:46:26.374Z,30.53
2023-05-11T22:48:54.608Z,30.07
2023-05-11T22:51:22.835Z,27.90
2023-05-11T22:53:51.405Z,25.33
2023-05-11T22:56:20.942Z,26.90
2023-05-11T22:58:49.069Z,25.57
2023-05-11T23:01:17.532Z,26.63
2023-05-11T23:03:45.781Z,25.67
2023-05-11T23:06:13.909Z,26.20
2023-05-11T23:08:42.075Z,25.33
2023-05-11T23:11:10.024Z,25.80
2023-05-11T23:13:41.027Z,26.27
2023-05-11T23:16:10.828Z,24.97
2023-05-11T23:18:39.281Z,26.00
2023-05-11T23:21:08.317Z,24.17
2023-05-11T23:23:36.354Z,24.70
2023-05-11T23:26:04.314Z,23.30
2023-05-11T23:28:32.304Z,24.60
2023-05-11T23:31:01.959Z,24.67
2023-05-11T23:33:29.900Z,24.70
2023-05-11T23:35:58.067Z,24.73
2023-05-11T23:38:27.818Z,25.77
2023-05-11T23:40:55.945Z,25.73
2023-05-11T23:43:23.899Z,24.27
2023-05-11T23:45:52.545Z,24.87
2023-05-11T23:48:21.991Z,24.67
2023-05-11T23:50:50.111Z,24.00
2023-05-11T23:53:18.100Z,23.67
2023-05-11T23:55:47.988Z,21.80
2023-05-11T23:58:16.107Z,22.13
